NKS1326 KCHS-KPBI
Flight info
| Callsign | NKS1326 |
|---|---|
| Flight time | 1h 7m |
| Altitude | 38000 |
| Route | LGRHD3 GIPPL Q93 KENLL CPTAN3 |
| Aircraft | A20N/M-SDE2E3FGHIRWXY/LB1 |
Departure
| Time | 2026-05-05 03:24 |
|---|---|
| Airport | Charleston International Airport (KCHS) |
Arrival
| Time | 2026-05-05 04:31 |
|---|---|
| Airport | Palm Beach International Airport (KPBI) |
| Time | Latitude | Longitude | Altitude | Speed | Heading |
|---|---|---|---|---|---|
| 2026-05-05 02:14 | 32.88634 | -80.03747 | 41 ft | 0 kts | 236° |
| 2026-05-05 03:03 | 32.88635 | -80.03745 | 41 ft | 2 kts | 236° |
| 2026-05-05 03:04 | 32.88644 | -80.03729 | 40 ft | 2 kts | 238° |
| 2026-05-05 03:04 | 32.88653 | -80.03712 | 39 ft | 2 kts | 240° |
| 2026-05-05 03:04 | 32.88661 | -80.03695 | 37 ft | 2 kts | 243° |
| 2026-05-05 03:04 | 32.88668 | -80.03677 | 38 ft | 2 kts | 248° |
| 2026-05-05 03:05 | 32.88674 | -80.03658 | 41 ft | 2 kts | 258° |
| 2026-05-05 03:05 | 32.88675 | -80.03639 | 41 ft | 2 kts | 281° |
| 2026-05-05 03:05 | 32.88670 | -80.03623 | 41 ft | 1 kts | 302° |
| 2026-05-05 03:05 | 32.88669 | -80.03620 | 41 ft | 0 kts | 300° |
| 2026-05-05 03:08 | 32.88672 | -80.03627 | 41 ft | 3 kts | 300° |
| 2026-05-05 03:08 | 32.88699 | -80.03636 | 41 ft | 5 kts | 356° |
| 2026-05-05 03:08 | 32.88737 | -80.03643 | 41 ft | 5 kts | 340° |
| 2026-05-05 03:08 | 32.88750 | -80.03659 | 41 ft | 0 kts | 309° |
| 2026-05-05 03:10 | 32.88760 | -80.03680 | 39 ft | 6 kts | 288° |
| 2026-05-05 03:11 | 32.88754 | -80.03749 | 41 ft | 11 kts | 252° |
| 2026-05-05 03:11 | 32.88717 | -80.03839 | 39 ft | 14 kts | 237° |
| 2026-05-05 03:11 | 32.88655 | -80.03929 | 41 ft | 15 kts | 223° |
| 2026-05-05 03:11 | 32.88618 | -80.03974 | 41 ft | 6 kts | 238° |
| 2026-05-05 03:12 | 32.88641 | -80.04016 | 41 ft | 8 kts | 339° |
| 2026-05-05 03:12 | 32.88679 | -80.04072 | 41 ft | 10 kts | 289° |
| 2026-05-05 03:12 | 32.88647 | -80.04150 | 39 ft | 12 kts | 230° |
| 2026-05-05 03:12 | 32.88585 | -80.04237 | 41 ft | 15 kts | 230° |
| 2026-05-05 03:13 | 32.88515 | -80.04345 | 40 ft | 14 kts | 233° |
| 2026-05-05 03:13 | 32.88501 | -80.04368 | 40 ft | 4 kts | 233° |
| 2026-05-05 03:13 | 32.88478 | -80.04409 | 41 ft | 8 kts | 247° |
| 2026-05-05 03:13 | 32.88484 | -80.04483 | 41 ft | 11 kts | 283° |
| 2026-05-05 03:14 | 32.88509 | -80.04583 | 41 ft | 14 kts | 294° |
| 2026-05-05 03:14 | 32.88596 | -80.04651 | 40 ft | 17 kts | 337° |
| 2026-05-05 03:14 | 32.88698 | -80.04704 | 40 ft | 0 kts | 336° |
| 2026-05-05 03:14 | 32.88709 | -80.04708 | 38 ft | 4 kts | 347° |
| 2026-05-05 03:15 | 32.88748 | -80.04699 | 40 ft | 8 kts | 22° |
| 2026-05-05 03:15 | 32.88761 | -80.04693 | 40 ft | 0 kts | 22° |
| 2026-05-05 03:16 | 32.88767 | -80.04691 | 40 ft | 4 kts | 22° |
| 2026-05-05 03:17 | 32.88808 | -80.04668 | 40 ft | 9 kts | 26° |
| 2026-05-05 03:17 | 32.88879 | -80.04629 | 40 ft | 13 kts | 25° |
| 2026-05-05 03:17 | 32.88972 | -80.04577 | 40 ft | 16 kts | 25° |
| 2026-05-05 03:17 | 32.89076 | -80.04524 | 40 ft | 12 kts | 23° |
| 2026-05-05 03:18 | 32.89153 | -80.04485 | 40 ft | 13 kts | 23° |
| 2026-05-05 03:18 | 32.89253 | -80.04463 | 41 ft | 16 kts | 360° |
| 2026-05-05 03:18 | 32.89377 | -80.04463 | 41 ft | 19 kts | 1° |
| 2026-05-05 03:18 | 32.89522 | -80.04458 | 41 ft | 22 kts | 1° |
| 2026-05-05 03:19 | 32.89865 | -80.04453 | 41 ft | 27 kts | 0° |
| 2026-05-05 03:19 | 32.90060 | -80.04452 | 40 ft | 28 kts | 0° |
| 2026-05-05 03:19 | 32.90179 | -80.04449 | 40 ft | 15 kts | 2° |
| 2026-05-05 03:20 | 32.90293 | -80.04445 | 40 ft | 18 kts | 1° |
| 2026-05-05 03:20 | 32.90399 | -80.04442 | 40 ft | 9 kts | 0° |
| 2026-05-05 03:20 | 32.90465 | -80.04480 | 40 ft | 12 kts | 327° |
| 2026-05-05 03:20 | 32.90548 | -80.04543 | 40 ft | 16 kts | 327° |
| 2026-05-05 03:21 | 32.90650 | -80.04620 | 40 ft | 19 kts | 327° |
| 2026-05-05 03:21 | 32.90768 | -80.04712 | 40 ft | 22 kts | 327° |
| 2026-05-05 03:21 | 32.90901 | -80.04815 | 40 ft | 24 kts | 327° |
| 2026-05-05 03:21 | 32.91047 | -80.04928 | 40 ft | 23 kts | 327° |
| 2026-05-05 03:22 | 32.91135 | -80.04997 | 40 ft | 6 kts | 326° |
| 2026-05-05 03:22 | 32.91186 | -80.05004 | 40 ft | 9 kts | 21° |
| 2026-05-05 03:22 | 32.91231 | -80.04933 | 38 ft | 12 kts | 58° |
| 2026-05-05 03:22 | 32.91255 | -80.04888 | 41 ft | 10 kts | 58° |
| 2026-05-05 03:23 | 32.91279 | -80.04803 | 41 ft | 12 kts | 104° |
| 2026-05-05 03:23 | 32.91210 | -80.04737 | 41 ft | 15 kts | 149° |
| 2026-05-05 03:23 | 32.90771 | -80.04420 | 40 ft | 110 kts | 148° |
| 2026-05-05 03:23 | 32.89924 | -80.03780 | 206 ft | 165 kts | 148° |
| 2026-05-05 03:24 | 32.88871 | -80.03139 | 1045 ft | 173 kts | 167° |
| 2026-05-05 03:24 | 32.88063 | -80.03076 | 1757 ft | 175 kts | 187° |
| 2026-05-05 03:24 | 32.86930 | -80.03636 | 2760 ft | 182 kts | 214° |
| 2026-05-05 03:24 | 32.85940 | -80.04717 | 3428 ft | 206 kts | 224° |
| 2026-05-05 03:25 | 32.84895 | -80.06000 | 4016 ft | 231 kts | 224° |
| 2026-05-05 03:25 | 32.83665 | -80.07376 | 4671 ft | 254 kts | 220° |
| 2026-05-05 03:25 | 32.82237 | -80.08747 | 5414 ft | 269 kts | 216° |
| 2026-05-05 03:25 | 32.80715 | -80.10067 | 6494 ft | 273 kts | 213° |
| 2026-05-05 03:26 | 32.79152 | -80.11367 | 7531 ft | 277 kts | 213° |
| 2026-05-05 03:26 | 32.77558 | -80.12679 | 8547 ft | 281 kts | 213° |
| 2026-05-05 03:26 | 32.75935 | -80.14016 | 9547 ft | 286 kts | 213° |
| 2026-05-05 03:26 | 32.74283 | -80.15377 | 10455 ft | 295 kts | 213° |
| 2026-05-05 03:27 | 32.72527 | -80.16825 | 10893 ft | 319 kts | 213° |
| 2026-05-05 03:27 | 32.70639 | -80.18383 | 11334 ft | 340 kts | 214° |
| 2026-05-05 03:27 | 32.68678 | -80.20001 | 12161 ft | 346 kts | 214° |
| 2026-05-05 03:27 | 32.66686 | -80.21641 | 13053 ft | 351 kts | 215° |
| 2026-05-05 03:28 | 32.64665 | -80.23305 | 13925 ft | 357 kts | 215° |
| 2026-05-05 03:28 | 32.62628 | -80.24982 | 14818 ft | 358 kts | 216° |
| 2026-05-05 03:28 | 32.60577 | -80.26672 | 15732 ft | 360 kts | 216° |
| 2026-05-05 03:28 | 32.58513 | -80.28372 | 16419 ft | 365 kts | 216° |
| 2026-05-05 03:29 | 32.56418 | -80.30023 | 17307 ft | 366 kts | 214° |
| 2026-05-05 03:29 | 32.54245 | -80.31626 | 18135 ft | 370 kts | 213° |
| 2026-05-05 03:29 | 32.52043 | -80.33226 | 18871 ft | 372 kts | 213° |
| 2026-05-05 03:29 | 32.49830 | -80.34840 | 19542 ft | 376 kts | 213° |
| 2026-05-05 03:30 | 32.47598 | -80.36480 | 20228 ft | 378 kts | 214° |
| 2026-05-05 03:30 | 32.45356 | -80.38136 | 20895 ft | 381 kts | 214° |
| 2026-05-05 03:30 | 32.43098 | -80.39807 | 21574 ft | 384 kts | 214° |
| 2026-05-05 03:30 | 32.40824 | -80.41491 | 22238 ft | 387 kts | 214° |
| 2026-05-05 03:31 | 32.38531 | -80.43188 | 22876 ft | 391 kts | 214° |
| 2026-05-05 03:31 | 32.36583 | -80.44629 | 23433 ft | 393 kts | 214° |
| 2026-05-05 03:31 | 32.34265 | -80.46343 | 24000 ft | 397 kts | 214° |
| 2026-05-05 03:31 | 32.31918 | -80.48077 | 24560 ft | 399 kts | 215° |
| 2026-05-05 03:32 | 32.29561 | -80.49817 | 25097 ft | 401 kts | 215° |
| 2026-05-05 03:32 | 32.27180 | -80.51573 | 25614 ft | 404 kts | 215° |
| 2026-05-05 03:32 | 32.24786 | -80.53339 | 26126 ft | 407 kts | 215° |
| 2026-05-05 03:32 | 32.22377 | -80.55115 | 26634 ft | 409 kts | 215° |
| 2026-05-05 03:33 | 32.19950 | -80.56902 | 27108 ft | 412 kts | 215° |
| 2026-05-05 03:33 | 32.17514 | -80.58695 | 27576 ft | 415 kts | 215° |
| 2026-05-05 03:33 | 32.15054 | -80.60504 | 28042 ft | 417 kts | 215° |
| 2026-05-05 03:33 | 32.12582 | -80.62320 | 28494 ft | 419 kts | 215° |
| 2026-05-05 03:34 | 32.10098 | -80.64145 | 28908 ft | 422 kts | 215° |
| 2026-05-05 03:34 | 32.07601 | -80.65977 | 29320 ft | 424 kts | 216° |
| 2026-05-05 03:34 | 32.05122 | -80.67796 | 29720 ft | 426 kts | 216° |
| 2026-05-05 03:34 | 32.02562 | -80.69672 | 30119 ft | 429 kts | 216° |
| 2026-05-05 03:35 | 32.00052 | -80.71511 | 30463 ft | 431 kts | 216° |
| 2026-05-05 03:35 | 31.97497 | -80.73382 | 30806 ft | 433 kts | 216° |
| 2026-05-05 03:35 | 31.94925 | -80.75263 | 31138 ft | 435 kts | 216° |
| 2026-05-05 03:35 | 31.92351 | -80.77145 | 31537 ft | 436 kts | 217° |
| 2026-05-05 03:36 | 31.89776 | -80.79024 | 31971 ft | 435 kts | 217° |
| 2026-05-05 03:36 | 31.87205 | -80.80899 | 32422 ft | 434 kts | 217° |
| 2026-05-05 03:36 | 31.84639 | -80.82770 | 32849 ft | 433 kts | 218° |
| 2026-05-05 03:36 | 31.82075 | -80.84637 | 33285 ft | 432 kts | 218° |
| 2026-05-05 03:37 | 31.79520 | -80.86498 | 33709 ft | 431 kts | 218° |
| 2026-05-05 03:37 | 31.76973 | -80.88352 | 34114 ft | 431 kts | 219° |
| 2026-05-05 03:37 | 31.74427 | -80.90204 | 34445 ft | 430 kts | 219° |
| 2026-05-05 03:37 | 31.71883 | -80.92054 | 34760 ft | 430 kts | 219° |
| 2026-05-05 03:38 | 31.69343 | -80.93901 | 35057 ft | 430 kts | 219° |
| 2026-05-05 03:38 | 31.66802 | -80.95747 | 35341 ft | 430 kts | 219° |
| 2026-05-05 03:38 | 31.64258 | -80.97595 | 35631 ft | 430 kts | 219° |
| 2026-05-05 03:38 | 31.61712 | -80.99442 | 35909 ft | 430 kts | 220° |
| 2026-05-05 03:39 | 31.59200 | -81.01263 | 36178 ft | 430 kts | 220° |
| 2026-05-05 03:39 | 31.56659 | -81.03104 | 36433 ft | 430 kts | 220° |
| 2026-05-05 03:39 | 31.54120 | -81.04942 | 36702 ft | 430 kts | 220° |
| 2026-05-05 03:39 | 31.51573 | -81.06786 | 36954 ft | 430 kts | 220° |
| 2026-05-05 03:40 | 31.49032 | -81.08623 | 37193 ft | 430 kts | 220° |
| 2026-05-05 03:40 | 31.46485 | -81.10464 | 37422 ft | 430 kts | 220° |
| 2026-05-05 03:40 | 31.43935 | -81.12306 | 37665 ft | 430 kts | 220° |
| 2026-05-05 03:40 | 31.41278 | -81.13974 | 37862 ft | 440 kts | 212° |
| 2026-05-05 03:41 | 31.38342 | -81.15159 | 38073 ft | 452 kts | 202° |
| 2026-05-05 03:41 | 31.35196 | -81.15784 | 38105 ft | 465 kts | 193° |
| 2026-05-05 03:41 | 31.31927 | -81.15767 | 38100 ft | 477 kts | 182° |
| 2026-05-05 03:41 | 31.28621 | -81.15347 | 38099 ft | 478 kts | 182° |
| 2026-05-05 03:42 | 31.22012 | -81.14521 | 38100 ft | 477 kts | 182° |
| 2026-05-05 03:42 | 31.15442 | -81.13725 | 38104 ft | 477 kts | 182° |
| 2026-05-05 03:43 | 31.08832 | -81.12928 | 38099 ft | 477 kts | 182° |
| 2026-05-05 03:43 | 31.02222 | -81.12134 | 38104 ft | 477 kts | 182° |
| 2026-05-05 03:44 | 30.95608 | -81.11340 | 38103 ft | 478 kts | 182° |
| 2026-05-05 03:44 | 30.88989 | -81.10546 | 38108 ft | 478 kts | 182° |
| 2026-05-05 03:45 | 30.82372 | -81.09753 | 38121 ft | 478 kts | 182° |
| 2026-05-05 03:45 | 30.75746 | -81.08960 | 38115 ft | 478 kts | 182° |
| 2026-05-05 03:46 | 30.69128 | -81.08169 | 38119 ft | 478 kts | 182° |
| 2026-05-05 03:46 | 30.62511 | -81.07501 | 38117 ft | 473 kts | 187° |
| 2026-05-05 03:47 | 30.55993 | -81.07785 | 38117 ft | 467 kts | 192° |
| 2026-05-05 03:47 | 30.49673 | -81.08181 | 38112 ft | 466 kts | 192° |
| 2026-05-05 03:48 | 30.43222 | -81.08598 | 38108 ft | 466 kts | 192° |
| 2026-05-05 03:48 | 30.36752 | -81.08999 | 38105 ft | 466 kts | 192° |
| 2026-05-05 03:49 | 30.30271 | -81.09386 | 38104 ft | 465 kts | 191° |
| 2026-05-05 03:49 | 30.23799 | -81.09769 | 38101 ft | 465 kts | 191° |
| 2026-05-05 03:50 | 30.17377 | -81.10150 | 38100 ft | 465 kts | 191° |
| 2026-05-05 03:50 | 30.10921 | -81.10532 | 38105 ft | 465 kts | 191° |
| 2026-05-05 03:51 | 30.04459 | -81.10916 | 38111 ft | 465 kts | 191° |
| 2026-05-05 03:51 | 29.97944 | -81.11305 | 38112 ft | 469 kts | 191° |
| 2026-05-05 03:52 | 29.91471 | -81.11682 | 38114 ft | 464 kts | 191° |
| 2026-05-05 03:52 | 29.85011 | -81.12066 | 38112 ft | 465 kts | 191° |
| 2026-05-05 03:53 | 29.78534 | -81.12376 | 38110 ft | 468 kts | 189° |
| 2026-05-05 03:53 | 29.72040 | -81.12356 | 38102 ft | 469 kts | 188° |
| 2026-05-05 03:54 | 29.65521 | -81.12341 | 38105 ft | 468 kts | 188° |
| 2026-05-05 03:54 | 29.58978 | -81.12006 | 38107 ft | 477 kts | 180° |
| 2026-05-05 03:55 | 29.52436 | -81.10313 | 38091 ft | 489 kts | 169° |
| 2026-05-05 03:55 | 29.46017 | -81.07640 | 38098 ft | 491 kts | 167° |
| 2026-05-05 03:56 | 29.39596 | -81.04969 | 38093 ft | 490 kts | 168° |
| 2026-05-05 03:56 | 29.33174 | -81.02313 | 38092 ft | 490 kts | 168° |
| 2026-05-05 03:57 | 29.26782 | -80.99667 | 38092 ft | 491 kts | 167° |
| 2026-05-05 03:57 | 29.20354 | -80.96991 | 38096 ft | 491 kts | 167° |
| 2026-05-05 03:58 | 29.13924 | -80.94339 | 38099 ft | 491 kts | 168° |
| 2026-05-05 03:58 | 29.07484 | -80.91695 | 38095 ft | 492 kts | 168° |
| 2026-05-05 03:59 | 29.01036 | -80.89052 | 38093 ft | 492 kts | 168° |
| 2026-05-05 03:59 | 28.94579 | -80.86408 | 38094 ft | 493 kts | 168° |
| 2026-05-05 04:00 | 28.88107 | -80.83762 | 38094 ft | 495 kts | 168° |
| 2026-05-05 04:00 | 28.81661 | -80.81132 | 38086 ft | 495 kts | 169° |
| 2026-05-05 04:01 | 28.78431 | -80.79813 | 37950 ft | 492 kts | 169° |
| 2026-05-05 04:01 | 28.75210 | -80.78499 | 37470 ft | 490 kts | 169° |
| 2026-05-05 04:01 | 28.71995 | -80.77192 | 36749 ft | 492 kts | 168° |
| 2026-05-05 04:01 | 28.68761 | -80.75880 | 36127 ft | 494 kts | 168° |
| 2026-05-05 04:02 | 28.65513 | -80.74564 | 35813 ft | 498 kts | 168° |
| 2026-05-05 04:02 | 28.62229 | -80.73233 | 35559 ft | 503 kts | 168° |
| 2026-05-05 04:02 | 28.58925 | -80.71892 | 35309 ft | 504 kts | 168° |
| 2026-05-05 04:02 | 28.55629 | -80.70554 | 35068 ft | 504 kts | 167° |
| 2026-05-05 04:03 | 28.52317 | -80.69212 | 34826 ft | 505 kts | 167° |
| 2026-05-05 04:03 | 28.49003 | -80.67867 | 34514 ft | 505 kts | 167° |
| 2026-05-05 04:03 | 28.45687 | -80.66524 | 33871 ft | 508 kts | 167° |
| 2026-05-05 04:03 | 28.42348 | -80.65172 | 33080 ft | 510 kts | 167° |
| 2026-05-05 04:04 | 28.39007 | -80.63818 | 32323 ft | 509 kts | 167° |
| 2026-05-05 04:04 | 28.35694 | -80.62474 | 31802 ft | 502 kts | 167° |
| 2026-05-05 04:04 | 28.32468 | -80.61166 | 31251 ft | 497 kts | 167° |
| 2026-05-05 04:04 | 28.29181 | -80.59836 | 30685 ft | 491 kts | 167° |
| 2026-05-05 04:05 | 28.26026 | -80.58561 | 30133 ft | 486 kts | 167° |
| 2026-05-05 04:05 | 28.22861 | -80.57283 | 29550 ft | 479 kts | 167° |
| 2026-05-05 04:05 | 28.19742 | -80.56025 | 29006 ft | 472 kts | 167° |
| 2026-05-05 04:05 | 28.16662 | -80.54785 | 28483 ft | 465 kts | 167° |
| 2026-05-05 04:06 | 28.13640 | -80.53569 | 27981 ft | 459 kts | 167° |
| 2026-05-05 04:06 | 28.10644 | -80.52364 | 27462 ft | 453 kts | 167° |
| 2026-05-05 04:06 | 28.07692 | -80.51178 | 26953 ft | 447 kts | 167° |
| 2026-05-05 04:06 | 28.04781 | -80.50009 | 26444 ft | 442 kts | 167° |
| 2026-05-05 04:07 | 28.01897 | -80.48852 | 25942 ft | 436 kts | 167° |
| 2026-05-05 04:07 | 27.99049 | -80.47709 | 25442 ft | 431 kts | 167° |
| 2026-05-05 04:07 | 27.96232 | -80.46580 | 24946 ft | 427 kts | 166° |
| 2026-05-05 04:07 | 27.93439 | -80.45461 | 24445 ft | 423 kts | 166° |
| 2026-05-05 04:08 | 27.90694 | -80.44360 | 24155 ft | 415 kts | 166° |
| 2026-05-05 04:08 | 27.87971 | -80.43268 | 23934 ft | 416 kts | 166° |
| 2026-05-05 04:08 | 27.85267 | -80.42186 | 23694 ft | 416 kts | 166° |
| 2026-05-05 04:08 | 27.82533 | -80.41092 | 23077 ft | 418 kts | 166° |
| 2026-05-05 04:09 | 27.79776 | -80.39990 | 22215 ft | 422 kts | 166° |
| 2026-05-05 04:09 | 27.76993 | -80.38877 | 21374 ft | 425 kts | 166° |
| 2026-05-05 04:09 | 27.74215 | -80.37763 | 20791 ft | 420 kts | 166° |
| 2026-05-05 04:09 | 27.71482 | -80.36665 | 20275 ft | 414 kts | 166° |
| 2026-05-05 04:10 | 27.68788 | -80.35586 | 19762 ft | 408 kts | 166° |
| 2026-05-05 04:10 | 27.66135 | -80.34492 | 19251 ft | 404 kts | 162° |
| 2026-05-05 04:10 | 27.63585 | -80.33168 | 18735 ft | 401 kts | 160° |
| 2026-05-05 04:10 | 27.61072 | -80.31834 | 18197 ft | 397 kts | 160° |
| 2026-05-05 04:11 | 27.58593 | -80.30521 | 17722 ft | 390 kts | 160° |
| 2026-05-05 04:11 | 27.56977 | -80.29667 | 17410 ft | 386 kts | 160° |
| 2026-05-05 04:11 | 27.54563 | -80.28392 | 16921 ft | 380 kts | 159° |
| 2026-05-05 04:11 | 27.51398 | -80.26725 | 16317 ft | 372 kts | 159° |
| 2026-05-05 04:12 | 27.49099 | -80.25510 | 16176 ft | 358 kts | 159° |
| 2026-05-05 04:12 | 27.46903 | -80.24347 | 15997 ft | 339 kts | 159° |
| 2026-05-05 04:12 | 27.45503 | -80.23607 | 15745 ft | 331 kts | 159° |
| 2026-05-05 04:12 | 27.43430 | -80.22518 | 15181 ft | 326 kts | 159° |
| 2026-05-05 04:13 | 27.41381 | -80.21445 | 14608 ft | 322 kts | 159° |
| 2026-05-05 04:13 | 27.39361 | -80.20386 | 14080 ft | 318 kts | 159° |
| 2026-05-05 04:13 | 27.37367 | -80.19340 | 13470 ft | 314 kts | 158° |
| 2026-05-05 04:13 | 27.35413 | -80.18313 | 13062 ft | 305 kts | 158° |
| 2026-05-05 04:14 | 27.33394 | -80.17257 | 12784 ft | 331 kts | 158° |
| 2026-05-05 04:14 | 27.31271 | -80.16146 | 12732 ft | 337 kts | 158° |
| 2026-05-05 04:14 | 27.29179 | -80.15045 | 12649 ft | 326 kts | 158° |
| 2026-05-05 04:14 | 27.27174 | -80.13986 | 12460 ft | 312 kts | 158° |
| 2026-05-05 04:15 | 27.25225 | -80.12961 | 11941 ft | 308 kts | 158° |
| 2026-05-05 04:15 | 27.23281 | -80.11988 | 11342 ft | 305 kts | 160° |
| 2026-05-05 04:15 | 27.21336 | -80.11056 | 10756 ft | 302 kts | 160° |
| 2026-05-05 04:15 | 27.19404 | -80.10136 | 10165 ft | 300 kts | 160° |
| 2026-05-05 04:16 | 27.17488 | -80.09219 | 9602 ft | 298 kts | 160° |
| 2026-05-05 04:16 | 27.15590 | -80.08306 | 9187 ft | 296 kts | 159° |
| 2026-05-05 04:16 | 27.13706 | -80.07395 | 8790 ft | 293 kts | 159° |
| 2026-05-05 04:16 | 27.11844 | -80.06486 | 8377 ft | 291 kts | 159° |
| 2026-05-05 04:17 | 27.09992 | -80.05566 | 7972 ft | 289 kts | 158° |
| 2026-05-05 04:17 | 27.08182 | -80.04666 | 7595 ft | 287 kts | 158° |
| 2026-05-05 04:17 | 27.06368 | -80.03765 | 7268 ft | 283 kts | 158° |
| 2026-05-05 04:17 | 27.04591 | -80.02881 | 6840 ft | 277 kts | 158° |
| 2026-05-05 04:18 | 27.02831 | -80.02012 | 6314 ft | 274 kts | 158° |
| 2026-05-05 04:18 | 27.01095 | -80.01157 | 5766 ft | 271 kts | 157° |
| 2026-05-05 04:18 | 26.99371 | -80.00308 | 5287 ft | 269 kts | 156° |
| 2026-05-05 04:18 | 26.97670 | -79.99470 | 4775 ft | 266 kts | 156° |
| 2026-05-05 04:19 | 26.95905 | -79.98915 | 4270 ft | 265 kts | 177° |
| 2026-05-05 04:19 | 26.94142 | -79.99318 | 4048 ft | 262 kts | 204° |
| 2026-05-05 04:19 | 26.92635 | -80.00486 | 3986 ft | 267 kts | 216° |
| 2026-05-05 04:19 | 26.91159 | -80.01762 | 3988 ft | 267 kts | 216° |
| 2026-05-05 04:20 | 26.89688 | -80.03031 | 3986 ft | 266 kts | 216° |
| 2026-05-05 04:20 | 26.88220 | -80.04294 | 3983 ft | 265 kts | 216° |
| 2026-05-05 04:20 | 26.86758 | -80.05552 | 3991 ft | 266 kts | 216° |
| 2026-05-05 04:20 | 26.85291 | -80.06812 | 3977 ft | 264 kts | 216° |
| 2026-05-05 04:21 | 26.83838 | -80.08063 | 3983 ft | 265 kts | 216° |
| 2026-05-05 04:21 | 26.82365 | -80.09342 | 3995 ft | 271 kts | 216° |
| 2026-05-05 04:21 | 26.81010 | -80.10788 | 3986 ft | 269 kts | 235° |
| 2026-05-05 04:21 | 26.80347 | -80.12726 | 3981 ft | 269 kts | 260° |
| 2026-05-05 04:22 | 26.80160 | -80.14808 | 3989 ft | 270 kts | 266° |
| 2026-05-05 04:22 | 26.80084 | -80.16916 | 3985 ft | 271 kts | 267° |
| 2026-05-05 04:22 | 26.80006 | -80.19020 | 3978 ft | 269 kts | 266° |
| 2026-05-05 04:22 | 26.79894 | -80.21108 | 3775 ft | 268 kts | 265° |
| 2026-05-05 04:23 | 26.79709 | -80.23189 | 3521 ft | 268 kts | 263° |
| 2026-05-05 04:23 | 26.79494 | -80.25233 | 3157 ft | 267 kts | 262° |
| 2026-05-05 04:23 | 26.79270 | -80.27304 | 3015 ft | 272 kts | 263° |
| 2026-05-05 04:23 | 26.79045 | -80.29400 | 2976 ft | 269 kts | 262° |
| 2026-05-05 04:24 | 26.78503 | -80.31368 | 2726 ft | 266 kts | 237° |
| 2026-05-05 04:24 | 26.77237 | -80.32836 | 2329 ft | 262 kts | 207° |
| 2026-05-05 04:24 | 26.75570 | -80.33401 | 2187 ft | 244 kts | 180° |
| 2026-05-05 04:25 | 26.72359 | -80.33510 | 1992 ft | 218 kts | 178° |
| 2026-05-05 04:25 | 26.70915 | -80.33390 | 1970 ft | 199 kts | 159° |
| 2026-05-05 04:25 | 26.69837 | -80.32632 | 1983 ft | 173 kts | 125° |
| 2026-05-05 04:25 | 26.69314 | -80.31464 | 1983 ft | 170 kts | 103° |
| 2026-05-05 04:26 | 26.69142 | -80.30169 | 1978 ft | 168 kts | 93° |
| 2026-05-05 04:26 | 26.69098 | -80.28856 | 1983 ft | 168 kts | 91° |
| 2026-05-05 04:26 | 26.69048 | -80.27562 | 1982 ft | 169 kts | 92° |
| 2026-05-05 04:26 | 26.68990 | -80.26252 | 1985 ft | 169 kts | 92° |
| 2026-05-05 04:27 | 26.68932 | -80.24935 | 1987 ft | 170 kts | 92° |
| 2026-05-05 04:27 | 26.68875 | -80.23610 | 1986 ft | 170 kts | 92° |
| 2026-05-05 04:27 | 26.68818 | -80.22307 | 1982 ft | 167 kts | 92° |
| 2026-05-05 04:27 | 26.68762 | -80.21004 | 1878 ft | 169 kts | 92° |
| 2026-05-05 04:28 | 26.68706 | -80.19718 | 1659 ft | 159 kts | 92° |
| 2026-05-05 04:28 | 26.68654 | -80.18521 | 1440 ft | 149 kts | 92° |
| 2026-05-05 04:28 | 26.68605 | -80.17406 | 1253 ft | 139 kts | 92° |
| 2026-05-05 04:28 | 26.68560 | -80.16369 | 1083 ft | 129 kts | 92° |
| 2026-05-05 04:29 | 26.68518 | -80.15385 | 916 ft | 124 kts | 92° |
| 2026-05-05 04:29 | 26.68476 | -80.14420 | 752 ft | 125 kts | 92° |
| 2026-05-05 04:29 | 26.68434 | -80.13452 | 591 ft | 125 kts | 91° |
| 2026-05-05 04:29 | 26.68392 | -80.12494 | 410 ft | 122 kts | 90° |
| 2026-05-05 04:30 | 26.68352 | -80.11563 | 254 ft | 123 kts | 91° |
| 2026-05-05 04:30 | 26.68311 | -80.10614 | 95 ft | 121 kts | 91° |
| 2026-05-05 04:30 | 26.68267 | -80.09694 | 24 ft | 112 kts | 92° |
| 2026-05-05 04:30 | 26.68249 | -80.09036 | 21 ft | 55 kts | 94° |
| 2026-05-05 04:31 | 26.68239 | -80.08817 | 21 ft | 11 kts | 92° |
| 2026-05-05 04:31 | 26.68240 | -80.08706 | 21 ft | 16 kts | 81° |
| 2026-05-05 04:31 | 26.68300 | -80.08639 | 21 ft | 10 kts | 2° |
| 2026-05-05 04:31 | 26.68340 | -80.08684 | 22 ft | 0 kts | 301° |
| 2026-05-05 04:32 | 26.68345 | -80.08694 | 21 ft | 0 kts | 301° |
| 2026-05-05 04:32 | 26.68353 | -80.08709 | 21 ft | 6 kts | 301° |
| 2026-05-05 04:33 | 26.68402 | -80.08731 | 21 ft | 5 kts | 0° |
| 2026-05-05 04:33 | 26.68411 | -80.08735 | 21 ft | 4 kts | 325° |
| 2026-05-05 04:33 | 26.68430 | -80.08791 | 21 ft | 11 kts | 289° |
| 2026-05-05 04:33 | 26.68458 | -80.08882 | 21 ft | 2 kts | 289° |
| 2026-05-05 04:34 | 26.68463 | -80.08898 | 21 ft | 4 kts | 289° |
| 2026-05-05 04:34 | 26.68470 | -80.08921 | 22 ft | 5 kts | 289° |
| 2026-05-05 04:34 | 26.68497 | -80.08935 | 21 ft | 5 kts | 353° |
| 2026-05-05 04:34 | 26.68517 | -80.08934 | 21 ft | 1 kts | 2° |
| 2026-05-05 04:35 | 26.68522 | -80.08933 | 21 ft | 0 kts | 2° |